Time;durP1;ratioP1;P1;durP2;ratioP2;P2;SDS_P1;SDS_P2;PMS_P1;PMS_P2;Temp;Humidity;BMP_temperature;BMP_pressure;BME280_temperature;BME280_humidity;BME280_pressure;Samples;Min_cycle;Max_cycle;Signal;HPM_P1;HPM_P2
2021/07/22 00:00:15;;;;;;;19.90;12.90;;;;;;;14.42;100.00;96430.28;1044111;28;20021;-52
2021/07/22 00:00:45;;;;;;;16.88;12.32;;;;;;;14.40;100.00;96425.13;1044067;28;20016;-51
2021/07/22 00:01:16;;;;;;;17.10;12.20;;;;;;;14.39;100.00;96426.91;1044251;28;20059;-52
2021/07/22 00:01:47;;;;;;;18.23;12.77;;;;;;;14.38;100.00;96425.22;1044298;28;20474;-50
2021/07/22 00:02:18;;;;;;;19.55;12.40;;;;;;;14.36;100.00;96423.69;1044019;28;20028;-50
2021/07/22 00:02:49;;;;;;;19.00;12.65;;;;;;;14.38;100.00;96430.50;1044225;28;20017;-50
2021/07/22 00:03:20;;;;;;;17.40;12.73;;;;;;;14.40;100.00;96427.75;1044184;28;20013;-50
2021/07/22 00:03:50;;;;;;;17.58;12.07;;;;;;;14.41;100.00;96424.16;1043551;28;20100;-51
2021/07/22 00:04:21;;;;;;;14.07;11.75;;;;;;;14.42;100.00;96428.47;1044205;28;20395;-50
2021/07/22 00:04:52;;;;;;;22.33;12.70;;;;;;;14.38;100.00;96427.03;1044198;28;20029;-51
2021/07/22 00:05:23;;;;;;;20.50;12.75;;;;;;;14.37;100.00;96425.34;1044401;28;20021;-50
2021/07/22 00:05:54;;;;;;;16.80;12.63;;;;;;;14.35;100.00;96430.72;1044230;28;20017;-50
2021/07/22 00:06:24;;;;;;;20.02;13.38;;;;;;;14.36;100.00;96426.31;1044059;28;20032;-50
2021/07/22 00:06:55;;;;;;;16.63;11.88;;;;;;;14.35;100.00;96435.19;1044148;28;20031;-50
2021/07/22 00:07:25;;;;;;;16.67;12.23;;;;;;;14.31;100.00;96431.09;1044283;28;20483;-50
2021/07/22 00:08:09;;;;;;;18.92;12.85;;;;;;;14.26;100.00;96433.25;1044248;28;20489;-52
2021/07/22 00:08:40;;;;;;;20.35;12.68;;;;;;;14.26;100.00;96436.72;1044320;28;20017;-49
2021/07/22 00:09:11;;;;;;;17.15;12.32;;;;;;;14.26;100.00;96434.09;1044086;28;20453;-50
2021/07/22 00:09:41;;;;;;;21.08;13.18;;;;;;;14.27;100.00;96432.31;1042103;28;20024;-50
2021/07/22 00:10:14;;;;;;;21.33;13.35;;;;;;;14.22;100.00;96430.00;1043524;28;20500;-52
2021/07/22 00:10:44;;;;;;;16.13;12.60;;;;;;;14.23;100.00;96434.34;1043897;28;20017;-52
2021/07/22 00:11:15;;;;;;;21.48;13.85;;;;;;;14.25;100.00;96431.59;1043642;28;20020;-50
2021/07/22 00:11:46;;;;;;;19.05;13.38;;;;;;;14.23;100.00;96433.47;1044133;28;20445;-50
2021/07/22 00:12:17;;;;;;;17.70;13.27;;;;;;;14.19;100.00;96427.63;1044347;28;20039;-53
2021/07/22 00:12:48;;;;;;;18.33;13.52;;;;;;;14.19;100.00;96428.47;1044363;28;20028;-51
2021/07/22 00:13:19;;;;;;;22.58;13.80;;;;;;;14.18;100.00;96431.22;1044175;28;20040;-52
2021/07/22 00:13:49;;;;;;;18.75;13.60;;;;;;;14.17;100.00;96424.25;1043532;28;20028;-50
2021/07/22 00:14:20;;;;;;;18.55;13.52;;;;;;;14.17;100.00;96422.47;1044157;28;20017;-50
2021/07/22 00:14:51;;;;;;;18.42;13.32;;;;;;;14.23;100.00;96429.06;1044281;28;20442;-53
2021/07/22 00:15:22;;;;;;;15.25;12.43;;;;;;;14.20;100.00;96431.94;1044139;28;20360;-51
2021/07/22 00:15:52;;;;;;;15.75;12.65;;;;;;;14.17;100.00;96430.38;1044148;28;20025;-51
2021/07/22 00:16:23;;;;;;;17.17;13.32;;;;;;;14.15;100.00;96431.44;1043997;28;20032;-51
2021/07/22 00:16:54;;;;;;;16.38;12.35;;;;;;;14.12;100.00;96432.53;1044252;28;20017;-50
2021/07/22 00:17:25;;;;;;;17.92;12.38;;;;;;;14.13;100.00;96426.31;1044216;28;20017;-50
2021/07/22 00:17:55;;;;;;;15.07;12.10;;;;;;;14.13;100.00;96434.22;1044145;28;20047;-52
2021/07/22 00:18:26;;;;;;;20.80;12.88;;;;;;;14.10;100.00;96423.91;1044015;28;20074;-50
2021/07/22 00:18:57;;;;;;;17.95;12.05;;;;;;;14.11;100.00;96422.94;1044207;28;20032;-51
2021/07/22 00:19:28;;;;;;;20.30;12.60;;;;;;;14.15;100.00;96428.81;1044187;28;20033;-51
2021/07/22 00:20:00;;;;;;;14.80;12.05;;;;;;;14.16;100.00;96425.22;1044136;28;20013;-50
2021/07/22 00:20:31;;;;;;;15.05;11.73;;;;;;;14.15;100.00;96427.03;1044075;28;20021;-50
2021/07/22 00:21:06;;;;;;;18.27;12.02;;;;;;;14.16;100.00;96423.41;1044232;28;20016;-51
2021/07/22 00:21:37;;;;;;;17.25;12.40;;;;;;;14.12;100.00;96421.97;1044213;28;20044;-51
2021/07/22 00:22:07;;;;;;;21.35;12.30;;;;;;;14.07;100.00;96418.84;1044085;28;20397;-51
2021/07/22 00:22:39;;;;;;;18.15;12.43;;;;;;;14.08;100.00;96417.06;1043920;28;20497;-50
2021/07/22 00:23:12;;;;;;;19.90;12.55;;;;;;;14.07;100.00;96426.75;1043944;28;20058;-51
2021/07/22 00:23:43;;;;;;;20.42;12.68;;;;;;;14.06;100.00;96419.81;1043223;28;20468;-50
2021/07/22 00:24:13;;;;;;;18.17;12.98;;;;;;;14.06;100.00;96416.31;1043877;28;20047;-52
2021/07/22 00:24:44;;;;;;;16.77;11.75;;;;;;;14.09;100.00;96416.94;1044080;28;20082;-50
2021/07/22 00:25:15;;;;;;;19.27;12.60;;;;;;;14.10;100.00;96417.78;1044223;28;20019;-51
2021/07/22 00:25:46;;;;;;;16.45;12.35;;;;;;;14.07;100.00;96413.59;1044257;28;20103;-52
2021/07/22 00:26:16;;;;;;;19.30;12.50;;;;;;;14.07;100.00;96418.03;1043981;28;20462;-50
2021/07/22 00:26:47;;;;;;;22.70;12.68;;;;;;;14.04;100.00;96416.47;1044162;28;20062;-50
2021/07/22 00:27:17;;;;;;;17.95;12.02;;;;;;;14.06;100.00;96421.59;1044198;28;20021;-52
2021/07/22 00:27:48;;;;;;;19.42;12.07;;;;;;;14.05;100.00;96414.66;1044200;28;20017;-50
2021/07/22 00:28:19;;;;;;;18.15;12.75;;;;;;;14.05;100.00;96417.31;1044059;28;20028;-51
2021/07/22 00:28:49;;;;;;;16.33;12.18;;;;;;;14.03;100.00;96408.69;1044101;28;20025;-52
2021/07/22 00:29:20;;;;;;;21.30;12.57;;;;;;;14.04;100.00;96412.97;1044125;28;20017;-49
2021/07/22 00:29:51;;;;;;;17.08;12.73;;;;;;;14.04;100.00;96415.63;1044124;28;20470;-51
2021/07/22 00:30:21;;;;;;;15.13;11.45;;;;;;;14.02;100.00;96412.25;1044048;28;20062;-52
2021/07/22 00:30:52;;;;;;;17.48;13.02;;;;;;;14.00;100.00;96407.97;1044141;28;20049;-52
2021/07/22 00:31:23;;;;;;;14.88;11.52;;;;;;;14.01;100.00;96411.44;1044072;28;20398;-50
2021/07/22 00:31:54;;;;;;;15.57;11.93;;;;;;;13.99;100.00;96414.19;1044192;28;20028;-50
2021/07/22 00:32:25;;;;;;;17.08;12.57;;;;;;;14.00;100.00;96412.38;1044128;28;20032;-51
2021/07/22 00:32:57;;;;;;;14.07;11.48;;;;;;;13.99;100.00;96413.34;1044038;28;20475;-52
2021/07/22 00:33:28;;;;;;;21.30;12.15;;;;;;;13.98;100.00;96412.50;1044019;28;20434;-49
2021/07/22 00:33:59;;;;;;;19.60;12.23;;;;;;;13.99;100.00;96413.34;1043978;28;20021;-51
2021/07/22 00:34:29;;;;;;;15.02;12.15;;;;;;;14.00;100.00;96412.38;1044122;28;20025;-52
2021/07/22 00:35:00;;;;;;;17.75;11.77;;;;;;;14.02;100.00;96413.13;1044114;28;20033;-51
2021/07/22 00:35:31;;;;;;;17.23;11.98;;;;;;;14.00;100.00;96415.00;1044159;28;20017;-51
2021/07/22 00:36:10;;;;;;;16.00;11.35;;;;;;;14.06;100.00;96414.56;1044085;28;20067;-52
2021/07/22 00:36:41;;;;;;;17.65;12.30;;;;;;;14.06;100.00;96408.44;1044248;28;20025;-50
2021/07/22 00:37:11;;;;;;;18.77;12.15;;;;;;;14.04;100.00;96405.94;1044092;28;20099;-51
2021/07/22 00:37:42;;;;;;;21.67;11.57;;;;;;;14.04;100.00;96411.22;1044274;28;20040;-51
2021/07/22 00:38:13;;;;;;;17.40;12.10;;;;;;;14.02;100.00;96407.84;1044016;28;20017;-51
2021/07/22 00:38:44;;;;;;;15.98;11.60;;;;;;;14.04;100.00;96410.34;1044152;28;20024;-50
2021/07/22 00:39:16;;;;;;;16.75;11.45;;;;;;;14.02;100.00;96407.84;1044004;28;20082;-51
2021/07/22 00:39:47;;;;;;;20.70;11.95;;;;;;;14.04;100.00;96412.97;1043960;28;20021;-51
2021/07/22 00:40:18;;;;;;;15.88;11.77;;;;;;;13.93;100.00;96396.22;1043833;28;20486;-52
2021/07/22 00:40:48;;;;;;;16.33;12.18;;;;;;;13.97;100.00;96410.00;1043798;28;20028;-50
2021/07/22 00:41:19;;;;;;;14.77;11.57;;;;;;;13.95;100.00;96412.75;1043805;28;20096;-51
2021/07/22 00:41:50;;;;;;;14.38;12.27;;;;;;;13.92;100.00;96406.88;1044193;28;20020;-51
2021/07/22 00:42:20;;;;;;;15.65;11.98;;;;;;;13.91;100.00;96411.28;1044139;28;20021;-51
2021/07/22 00:43:00;;;;;;;25.88;13.70;;;;;;;13.96;100.00;96410.94;1044248;28;20455;-51
2021/07/22 00:43:31;;;;;;;16.70;12.40;;;;;;;13.96;100.00;96409.16;1043823;28;20021;-51
2021/07/22 00:44:03;;;;;;;17.40;12.88;;;;;;;13.97;100.00;96412.63;1044055;28;20475;-51
2021/07/22 00:44:34;;;;;;;17.52;13.45;;;;;;;13.93;100.00;96406.75;1044064;28;20021;-51
2021/07/22 00:45:06;;;;;;;16.38;12.18;;;;;;;13.92;100.00;96410.31;1044060;28;20379;-51
2021/07/22 00:45:36;;;;;;;17.02;12.48;;;;;;;13.91;100.00;96407.84;1044181;28;20051;-51
2021/07/22 00:46:08;;;;;;;15.30;12.02;;;;;;;13.92;100.00;96406.88;1044104;28;20021;-51
2021/07/22 00:46:39;;;;;;;17.35;12.10;;;;;;;13.91;100.00;96408.66;1044078;28;20025;-51
2021/07/22 00:47:09;;;;;;;20.95;12.32;;;;;;;13.90;100.00;96406.13;1044106;28;20017;-51
2021/07/22 00:47:40;;;;;;;18.77;12.38;;;;;;;13.90;100.00;96408.78;1044175;28;20089;-52
2021/07/22 00:48:11;;;;;;;17.92;12.32;;;;;;;13.92;100.00;96409.50;1044181;28;20488;-51
2021/07/22 00:48:42;;;;;;;15.48;12.10;;;;;;;13.91;100.00;96408.66;1043781;28;20024;-50
2021/07/22 00:49:13;;;;;;;18.48;12.27;;;;;;;13.89;100.00;96407.94;1043714;28;20072;-52
2021/07/22 00:49:46;;;;;;;16.27;12.05;;;;;;;13.91;100.00;96408.66;1043728;28;20013;-51
2021/07/22 00:50:17;;;;;;;17.38;12.43;;;;;;;13.90;100.00;96414.03;1043775;28;20013;-51
2021/07/22 00:50:47;;;;;;;15.88;12.48;;;;;;;13.91;100.00;96413.94;1044198;28;20017;-50
2021/07/22 00:51:18;;;;;;;24.88;13.35;;;;;;;13.89;100.00;96410.59;1044087;28;20471;-51
2021/07/22 00:51:49;;;;;;;18.80;12.95;;;;;;;13.91;100.00;96413.09;1044112;28;20119;-51
2021/07/22 00:52:20;;;;;;;17.80;12.85;;;;;;;13.91;100.00;96410.47;1044098;28;20013;-51
2021/07/22 00:52:50;;;;;;;16.38;11.90;;;;;;;13.94;100.00;96408.41;1044126;28;20018;-52
2021/07/22 00:53:21;;;;;;;15.10;11.40;;;;;;;13.97;100.00;96404.72;1044055;28;20009;-51
2021/07/22 00:53:52;;;;;;;16.63;12.27;;;;;;;13.96;100.00;96410.94;1043480;28;20013;-49
2021/07/22 00:54:23;;;;;;;19.23;12.45;;;;;;;13.97;100.00;96402.09;1044063;28;20047;-51
2021/07/22 00:54:53;;;;;;;15.40;12.23;;;;;;;13.95;100.00;96402.19;1044159;28;20013;-51
2021/07/22 00:55:27;;;;;;;15.95;11.70;;;;;;;13.95;100.00;96410.09;1044031;28;20471;-51
2021/07/22 00:55:57;;;;;;;19.95;12.05;;;;;;;13.93;100.00;96412.03;1044030;28;20047;-51
2021/07/22 00:56:28;;;;;;;16.35;12.18;;;;;;;13.93;100.00;96409.38;1044136;28;20078;-50
2021/07/22 00:56:59;;;;;;;16.42;13.48;;;;;;;13.92;100.00;96405.06;1044630;28;20021;-52
2021/07/22 00:57:30;;;;;;;15.95;12.15;;;;;;;13.88;100.00;96406.25;1044895;28;20020;-51
2021/07/22 00:58:00;;;;;;;15.63;12.40;;;;;;;13.94;100.00;96410.22;1044903;28;20031;-50
2021/07/22 00:58:32;;;;;;;15.20;11.95;;;;;;;13.91;100.00;96405.19;1044887;28;20052;-51
2021/07/22 00:59:02;;;;;;;17.42;12.63;;;;;;;13.90;100.00;96406.13;1045067;28;20211;-50
2021/07/22 00:59:33;;;;;;;18.00;12.15;;;;;;;13.89;100.00;96407.09;1044992;28;20021;-52
2021/07/22 01:00:06;;;;;;;15.48;12.15;;;;;;;13.93;100.00;96400.66;1044844;28;20017;-51
2021/07/22 01:00:36;;;;;;;15.15;11.73;;;;;;;13.97;100.00;96410.81;1044860;28;20471;-50
2021/07/22 01:01:07;;;;;;;20.15;11.95;;;;;;;13.95;100.00;96402.19;1044921;28;20027;-51
2021/07/22 01:01:38;;;;;;;17.33;11.90;;;;;;;13.96;100.00;96405.66;1044822;28;20024;-51
2021/07/22 01:02:09;;;;;;;16.40;11.13;;;;;;;13.97;100.00;96402.09;1044776;28;20039;-51
2021/07/22 01:02:39;;;;;;;15.07;11.15;;;;;;;13.92;100.00;96397.16;1044795;28;20391;-51
2021/07/22 01:03:10;;;;;;;18.48;11.63;;;;;;;13.91;100.00;96394.66;1044948;28;20032;-51
2021/07/22 01:03:44;;;;;;;18.27;12.13;;;;;;;13.91;100.00;96392.84;1044259;28;20027;-51
2021/07/22 01:04:14;;;;;;;17.50;12.65;;;;;;;13.86;100.00;96397.63;1044760;28;20020;-50
2021/07/22 01:04:45;;;;;;;17.40;12.55;;;;;;;13.80;100.00;96398.94;1044918;28;20024;-51
2021/07/22 01:05:16;;;;;;;17.85;12.25;;;;;;;13.79;100.00;96393.78;1044854;28;20017;-50
2021/07/22 01:05:47;;;;;;;18.40;12.52;;;;;;;13.80;100.00;96396.31;1044980;28;20028;-53
2021/07/22 01:06:17;;;;;;;20.00;13.57;;;;;;;13.82;100.00;96398.81;1044691;28;20120;-50
2021/07/22 01:06:48;;;;;;;18.55;12.75;;;;;;;13.83;100.00;96397.84;1044920;28;20433;-49
2021/07/22 01:07:19;;;;;;;16.48;13.60;;;;;;;13.82;100.00;96388.28;1044933;28;20479;-49
2021/07/22 01:07:50;;;;;;;18.45;12.73;;;;;;;13.83;100.00;96397.84;1044826;28;20463;-51
2021/07/22 01:08:20;;;;;;;17.35;12.90;;;;;;;13.82;100.00;96392.72;1044703;28;20032;-50
2021/07/22 01:08:51;;;;;;;19.67;12.77;;;;;;;13.82;100.00;96392.72;1044836;28;20414;-52
2021/07/22 01:09:22;;;;;;;20.13;13.60;;;;;;;13.80;100.00;96398.09;1044821;28;20029;-50
2021/07/22 01:09:53;;;;;;;15.98;12.40;;;;;;;13.82;100.00;96395.38;1044851;28;20101;-51
2021/07/22 01:10:24;;;;;;;19.60;13.18;;;;;;;13.82;100.00;96403.25;1044681;28;20017;-51
2021/07/22 01:10:54;;;;;;;16.13;12.75;;;;;;;13.82;100.00;96396.19;1044800;28;20023;-51
2021/07/22 01:11:25;;;;;;;15.40;12.82;;;;;;;13.82;100.00;96400.63;1044441;28;20056;-50
2021/07/22 01:11:55;;;;;;;20.02;13.55;;;;;;;13.80;100.00;96393.66;1045006;28;20040;-50
2021/07/22 01:12:26;;;;;;;19.95;14.40;;;;;;;13.83;100.00;96395.22;1044684;28;20041;-50
2021/07/22 01:12:57;;;;;;;18.55;12.85;;;;;;;13.81;100.00;96399.78;1044913;28;20104;-52
2021/07/22 01:13:28;;;;;;;17.52;12.95;;;;;;;13.83;100.00;96397.84;1044692;28;20160;-50
2021/07/22 01:13:58;;;;;;;18.00;12.93;;;;;;;13.83;100.00;96395.22;1044459;28;20031;-50
2021/07/22 01:14:29;;;;;;;17.83;12.43;;;;;;;13.86;100.00;96399.44;1044722;28;20031;-50
2021/07/22 01:15:00;;;;;;;20.20;12.70;;;;;;;13.88;100.00;96397.53;1044735;28;20040;-52
2021/07/22 01:15:46;;;;;;;16.98;13.23;;;;;;;13.86;100.00;96399.44;1044847;28;20044;-51
2021/07/22 01:16:16;;;;;;;14.93;12.18;;;;;;;13.85;100.00;96395.09;1044798;28;20108;-51
2021/07/22 01:16:47;;;;;;;19.02;11.98;;;;;;;13.83;100.00;96394.38;1044272;28;20024;-51
2021/07/22 01:17:38;;;;;;;16.05;12.38;;;;;;;13.86;100.00;96400.25;1044577;28;20020;-51
2021/07/22 01:18:09;;;;;;;15.43;11.77;;;;;;;13.84;100.00;96391.66;1044511;28;20060;-50
2021/07/22 01:18:40;;;;;;;16.67;12.30;;;;;;;13.85;100.00;96400.38;1044528;28;20498;-51
2021/07/22 01:19:11;;;;;;;16.85;12.30;;;;;;;13.84;100.00;96396.91;1044801;28;20096;-51
2021/07/22 01:19:42;;;;;;;13.30;11.13;;;;;;;13.82;100.00;96395.38;1044794;28;20103;-51
2021/07/22 01:20:14;;;;;;;16.02;12.23;;;;;;;13.79;100.00;96399.06;1044972;28;20019;-51
2021/07/22 01:20:45;;;;;;;16.52;12.88;;;;;;;13.80;100.00;96395.47;1044661;28;20120;-51
2021/07/22 01:21:15;;;;;;;15.90;12.15;;;;;;;13.76;100.00;96397.50;1044943;28;20048;-53
2021/07/22 01:21:46;;;;;;;17.15;12.80;;;;;;;13.77;100.00;96395.69;1044782;28;20053;-51
2021/07/22 01:22:17;;;;;;;14.88;12.23;;;;;;;13.74;100.00;96391.50;1044889;28;20058;-50
2021/07/22 01:22:49;;;;;;;15.10;12.68;;;;;;;13.73;100.00;96389.81;1044708;28;20433;-50
2021/07/22 01:23:19;;;;;;;17.55;13.35;;;;;;;13.74;100.00;96390.66;1044863;28;20092;-51
2021/07/22 01:23:50;;;;;;;19.90;12.00;;;;;;;13.75;100.00;96390.53;1044083;28;20017;-51
2021/07/22 01:24:21;;;;;;;16.02;12.57;;;;;;;13.75;100.00;96392.34;1044884;28;20056;-50
2021/07/22 01:24:52;;;;;;;19.25;12.35;;;;;;;13.74;100.00;96390.66;1044634;28;20108;-50
2021/07/22 01:25:23;;;;;;;17.45;12.52;;;;;;;13.78;100.00;96394.75;1044817;28;20015;-51
2021/07/22 01:25:54;;;;;;;17.98;12.05;;;;;;;13.80;100.00;96390.22;1044807;28;20021;-53
2021/07/22 01:26:24;;;;;;;20.80;13.07;;;;;;;13.80;100.00;96393.66;1044734;28;20467;-52
2021/07/22 01:26:55;;;;;;;14.15;11.18;;;;;;;13.79;100.00;96389.38;1044631;28;20051;-51
2021/07/22 01:27:25;;;;;;;16.05;11.90;;;;;;;13.79;100.00;96384.09;1044791;28;20016;-50
2021/07/22 01:27:57;;;;;;;15.25;11.15;;;;;;;13.77;100.00;96390.44;1044840;28;20084;-51
2021/07/22 01:28:27;;;;;;;19.98;13.02;;;;;;;13.74;100.00;96383.63;1044714;28;20016;-50
2021/07/22 01:28:58;;;;;;;16.63;11.65;;;;;;;13.73;100.00;96383.72;1044643;28;20021;-53
2021/07/22 01:29:29;;;;;;;17.15;12.68;;;;;;;13.73;100.00;96387.19;1044752;28;20031;-50
2021/07/22 01:29:59;;;;;;;20.33;13.50;;;;;;;13.72;100.00;96390.78;1044705;28;20363;-50
2021/07/22 01:30:30;;;;;;;17.25;12.65;;;;;;;13.72;100.00;96392.56;1044803;28;20028;-52
2021/07/22 01:31:01;;;;;;;15.52;12.25;;;;;;;13.70;100.00;96386.56;1044605;28;20017;-51
2021/07/22 01:31:32;;;;;;;20.13;13.32;;;;;;;13.69;100.00;96387.56;1044812;28;20020;-51
2021/07/22 01:32:04;;;;;;;17.40;12.52;;;;;;;13.69;100.00;96387.56;1044747;28;20028;-52
2021/07/22 01:32:35;;;;;;;18.67;12.48;;;;;;;13.69;100.00;96382.28;1044811;28;20021;-51
2021/07/22 01:33:06;;;;;;;15.18;12.55;;;;;;;13.67;100.00;96385.03;1044732;28;20482;-50
2021/07/22 01:33:37;;;;;;;17.95;12.88;;;;;;;13.69;100.00;96385.75;1044201;28;20013;-50
2021/07/22 01:34:07;;;;;;;15.27;12.50;;;;;;;13.69;100.00;96383.13;1044850;28;20021;-50
2021/07/22 01:34:38;;;;;;;17.30;12.48;;;;;;;13.69;100.00;96382.28;1044826;28;20025;-51
2021/07/22 01:35:09;;;;;;;17.17;12.07;;;;;;;13.69;100.00;96385.75;1044684;28;20016;-51
2021/07/22 01:35:41;;;;;;;15.25;12.77;;;;;;;13.66;100.00;96383.34;1044832;28;20067;-52
2021/07/22 01:36:13;;;;;;;16.83;12.50;;;;;;;13.67;100.00;96379.75;1044775;28;20482;-52
2021/07/22 01:36:44;;;;;;;17.38;12.73;;;;;;;13.68;100.00;96380.59;1044669;28;20017;-51
2021/07/22 01:37:15;;;;;;;20.58;12.43;;;;;;;13.68;100.00;96381.41;1044674;28;20073;-50
2021/07/22 01:37:45;;;;;;;17.35;12.90;;;;;;;13.70;100.00;96382.16;1044820;28;20025;-51
2021/07/22 01:38:16;;;;;;;15.60;13.00;;;;;;;13.71;100.00;96375.09;1044849;28;20478;-51
2021/07/22 01:38:47;;;;;;;15.00;12.60;;;;;;;13.72;100.00;96379.41;1044744;28;20013;-51
2021/07/22 01:39:17;;;;;;;15.68;12.18;;;;;;;13.71;100.00;96385.63;1044654;28;20021;-50
2021/07/22 01:39:48;;;;;;;16.27;12.88;;;;;;;13.71;100.00;96381.19;1044748;28;20438;-51
2021/07/22 01:40:19;;;;;;;14.43;11.65;;;;;;;13.70;100.00;96379.53;1044797;28;20047;-51
2021/07/22 01:40:50;;;;;;;18.33;11.73;;;;;;;13.69;100.00;96377.00;1044687;28;20483;-52
2021/07/22 01:41:21;;;;;;;13.98;12.38;;;;;;;13.67;100.00;96382.41;1044704;28;20095;-52
2021/07/22 01:41:51;;;;;;;15.88;12.20;;;;;;;13.62;100.00;96381.91;1044804;28;20021;-50
2021/07/22 01:42:22;;;;;;;15.25;12.45;;;;;;;13.61;100.00;96383.69;1044675;28;20013;-50
2021/07/22 01:42:53;;;;;;;15.80;13.10;;;;;;;13.58;100.00;96378.66;1044658;28;20028;-51
2021/07/22 01:43:23;;;;;;;17.40;13.27;;;;;;;13.58;100.00;96380.47;1044432;28;20017;-51
2021/07/22 01:43:54;;;;;;;17.55;13.05;;;;;;;13.61;100.00;96382.88;1044365;28;20021;-50
2021/07/22 01:44:25;;;;;;;17.92;12.73;;;;;;;13.62;100.00;96387.16;1044798;28;20103;-53
2021/07/22 01:44:55;;;;;;;16.52;12.70;;;;;;;13.63;100.00;96383.59;1044716;28;20040;-51
2021/07/22 01:45:26;;;;;;;16.33;12.13;;;;;;;13.58;100.00;96381.28;1044697;28;20398;-51
2021/07/22 01:45:57;;;;;;;15.20;11.93;;;;;;;13.55;100.00;96385.94;1044842;28;20020;-51
2021/07/22 01:46:27;;;;;;;16.50;12.38;;;;;;;13.54;100.00;96379.00;1044638;28;20451;-51
2021/07/22 01:46:58;;;;;;;16.70;12.63;;;;;;;13.54;100.00;96386.91;1044671;28;20024;-50
2021/07/22 01:47:29;;;;;;;17.38;13.13;;;;;;;13.52;100.00;96389.66;1044761;28;20139;-51
2021/07/22 01:48:00;;;;;;;17.73;13.30;;;;;;;13.52;100.00;96380.94;1044677;28;20439;-50
2021/07/22 01:48:31;;;;;;;17.65;12.75;;;;;;;13.50;100.00;96383.66;1044737;28;20051;-52
2021/07/22 01:49:02;;;;;;;21.73;13.48;;;;;;;13.48;100.00;96384.75;1044599;28;20079;-51
2021/07/22 01:49:33;;;;;;;19.42;12.70;;;;;;;13.48;100.00;96390.84;1044552;28;20035;-51
2021/07/22 01:50:04;;;;;;;20.13;12.73;;;;;;;13.48;100.00;96388.22;1044668;28;20032;-50
2021/07/22 01:50:35;;;;;;;16.38;13.30;;;;;;;13.48;100.00;96382.13;1044692;28;20075;-52
2021/07/22 01:51:06;;;;;;;15.40;13.40;;;;;;;13.48;100.00;96384.75;1044654;28;20436;-51
2021/07/22 01:51:37;;;;;;;17.33;12.85;;;;;;;13.47;100.00;96388.31;1044690;28;20043;-52
2021/07/22 01:52:08;;;;;;;15.60;13.15;;;;;;;13.46;100.00;96384.00;1044666;28;20024;-52
2021/07/22 01:52:38;;;;;;;19.10;13.50;;;;;;;13.48;100.00;96384.75;1044732;28;20048;-51
2021/07/22 01:53:09;;;;;;;19.77;13.35;;;;;;;13.48;100.00;96390.00;1044652;28;20021;-52
2021/07/22 01:53:40;;;;;;;17.58;12.82;;;;;;;13.47;100.00;96385.69;1044068;28;20029;-51
2021/07/22 01:54:10;;;;;;;17.40;13.30;;;;;;;13.47;100.00;96385.69;1044625;28;20464;-51
2021/07/22 01:54:41;;;;;;;18.67;13.60;;;;;;;13.48;100.00;96382.13;1044775;28;20055;-51
2021/07/22 01:55:12;;;;;;;15.50;13.57;;;;;;;13.46;100.00;96386.63;1044706;28;20048;-50
2021/07/22 01:55:42;;;;;;;17.67;13.18;;;;;;;13.45;100.00;96387.59;1044613;28;20020;-50
2021/07/22 01:56:13;;;;;;;18.58;13.60;;;;;;;13.41;100.00;96382.56;1044574;28;20032;-50
2021/07/22 01:56:44;;;;;;;18.60;13.85;;;;;;;13.42;100.00;96380.78;1044650;28;20045;-51
2021/07/22 01:57:15;;;;;;;15.55;12.77;;;;;;;13.41;100.00;96385.19;1044690;28;20394;-51
2021/07/22 01:57:47;;;;;;;21.73;13.05;;;;;;;13.42;100.00;96386.03;1044673;28;20013;-51
2021/07/22 01:58:17;;;;;;;21.88;13.35;;;;;;;13.40;100.00;96382.66;1044567;28;20025;-52
2021/07/22 01:58:48;;;;;;;17.98;14.25;;;;;;;13.37;100.00;96389.00;1044660;28;20020;-52
2021/07/22 01:59:19;;;;;;;18.60;13.82;;;;;;;13.38;100.00;96384.56;1044667;28;20021;-51
2021/07/22 01:59:50;;;;;;;18.92;13.25;;;;;;;13.39;100.00;96391.53;1044672;28;20031;-52
2021/07/22 02:00:21;;;;;;;16.20;12.15;;;;;;;13.38;100.00;96385.44;1044669;28;20056;-50
2021/07/22 02:00:52;;;;;;;14.82;12.15;;;;;;;13.37;100.00;96383.75;1044711;28;20480;-50
2021/07/22 02:01:22;;;;;;;16.23;13.00;;;;;;;13.36;100.00;96382.09;1044703;28;20017;-51
2021/07/22 02:01:53;;;;;;;20.50;13.48;;;;;;;13.36;100.00;96383.84;1044586;28;20092;-50
2021/07/22 02:02:24;;;;;;;17.70;12.18;;;;;;;13.37;100.00;96385.53;1044583;28;20013;-50
2021/07/22 02:02:54;;;;;;;18.83;12.75;;;;;;;13.35;100.00;96380.38;1044586;28;20101;-50
2021/07/22 02:03:25;;;;;;;16.50;13.05;;;;;;;13.37;100.00;96386.38;1044393;28;20021;-51
2021/07/22 02:03:56;;;;;;;16.98;13.25;;;;;;;13.40;100.00;96374.75;1044206;28;20017;-51
2021/07/22 02:04:27;;;;;;;19.27;13.35;;;;;;;13.41;100.00;96389.63;1044614;28;20013;-51
2021/07/22 02:04:58;;;;;;;19.85;13.55;;;;;;;13.43;100.00;96378.97;1044313;28;20013;-52
2021/07/22 02:05:29;;;;;;;16.75;13.20;;;;;;;13.43;100.00;96379.81;1044393;28;20495;-51
2021/07/22 02:06:07;;;;;;;17.15;13.90;;;;;;;13.43;100.00;96385.06;1044292;28;20023;-50
2021/07/22 02:06:39;;;;;;;19.42;13.38;;;;;;;13.44;100.00;96370.97;1044372;28;20092;-52
2021/07/22 02:07:10;;;;;;;19.02;14.07;;;;;;;13.44;100.00;96376.25;1044658;28;20331;-50
2021/07/22 02:07:41;;;;;;;16.52;13.15;;;;;;;13.42;100.00;96380.78;1044291;28;20058;-51
2021/07/22 02:08:12;;;;;;;20.10;13.82;;;;;;;13.41;100.00;96377.28;1044683;28;20055;-50
2021/07/22 02:08:43;;;;;;;15.50;13.40;;;;;;;13.43;100.00;96376.34;1044544;28;20011;-52
2021/07/22 02:09:13;;;;;;;16.38;13.35;;;;;;;13.41;100.00;96379.91;1044528;28;20020;-50
2021/07/22 02:09:44;;;;;;;15.65;13.38;;;;;;;13.42;100.00;96375.53;1044698;28;20033;-51
2021/07/22 02:10:15;;;;;;;19.05;13.52;;;;;;;13.41;100.00;96374.66;1044551;28;20013;-50
2021/07/22 02:10:45;;;;;;;20.00;13.13;;;;;;;13.40;100.00;96380.03;1044519;28;20029;-51
2021/07/22 02:11:16;;;;;;;18.15;12.75;;;;;;;13.39;100.00;96375.75;1044237;28;20029;-51
2021/07/22 02:11:46;;;;;;;16.20;13.88;;;;;;;13.40;100.00;96370.38;1044546;28;20032;-51
2021/07/22 02:12:17;;;;;;;18.90;14.13;;;;;;;13.40;100.00;96378.25;1044682;28;20096;-51
2021/07/22 02:12:48;;;;;;;17.92;13.15;;;;;;;13.44;100.00;96381.50;1044493;28;20021;-51
2021/07/22 02:13:18;;;;;;;22.92;14.65;;;;;;;13.43;100.00;96377.19;1044554;28;20092;-52
2021/07/22 02:13:49;;;;;;;16.75;13.35;;;;;;;13.43;100.00;96366.66;1044020;28;20028;-51
2021/07/22 02:14:21;;;;;;;18.48;13.63;;;;;;;13.45;100.00;96372.63;1044650;28;20483;-50
2021/07/22 02:14:52;;;;;;;19.55;14.20;;;;;;;13.46;100.00;96370.84;1044493;28;20043;-51
2021/07/22 02:15:22;;;;;;;19.50;14.75;;;;;;;13.45;100.00;96371.81;1044601;28;20009;-50
2021/07/22 02:15:53;;;;;;;18.00;13.68;;;;;;;13.46;100.00;96370.84;1044600;28;20115;-50
2021/07/22 02:16:24;;;;;;;18.08;14.07;;;;;;;13.48;100.00;96371.59;1044608;28;20009;-51
2021/07/22 02:16:55;;;;;;;18.20;14.25;;;;;;;13.48;100.00;96369.78;1044517;28;20013;-50
2021/07/22 02:17:26;;;;;;;18.48;14.80;;;;;;;13.52;100.00;96375.66;1044676;28;20364;-51
2021/07/22 02:17:56;;;;;;;21.02;14.27;;;;;;;13.52;100.00;96373.03;1044624;28;20020;-51
2021/07/22 02:18:27;;;;;;;16.83;13.15;;;;;;;13.52;100.00;96365.13;1044668;28;20031;-50
2021/07/22 02:18:57;;;;;;;16.17;12.80;;;;;;;13.51;100.00;96374.81;1044506;28;20090;-52
2021/07/22 02:19:28;;;;;;;16.33;12.52;;;;;;;13.51;100.00;96374.81;1044517;28;20021;-50
2021/07/22 02:20:00;;;;;;;18.92;13.77;;;;;;;13.51;100.00;96371.34;1044664;28;20467;-51
2021/07/22 02:20:30;;;;;;;17.23;13.52;;;;;;;13.52;100.00;96367.75;1044625;28;20013;-53
2021/07/22 02:21:08;;;;;;;18.30;14.38;;;;;;;13.52;100.00;96373.84;1044498;28;20394;-49
2021/07/22 02:21:40;;;;;;;17.85;14.27;;;;;;;13.51;100.00;96366.06;1044661;28;20013;-51